Time;durP1;ratioP1;P1;durP2;ratioP2;P2;SDS_P1;SDS_P2;PMS_P1;PMS_P2;Temp;Humidity;BMP_temperature;BMP_pressure;BME280_temperature;BME280_humidity;BME280_pressure;Samples;Min_cycle;Max_cycle;Signal;HPM_P1;HPM_P2
2022/05/29 00:01:51;;;;;;;18.90;2.78;;;10.30;99.90;;;;;;5042573;28;20033;-61
2022/05/29 00:04:19;;;;;;;14.32;2.20;;;10.20;99.90;;;;;;5042065;28;20513;-61
2022/05/29 00:06:47;;;;;;;17.02;3.10;;;10.30;99.90;;;;;;5035576;28;20043;-61
2022/05/29 00:09:20;;;;;;;22.17;3.08;;;10.20;99.90;;;;;;5039676;28;20053;-62
2022/05/29 00:11:46;;;;;;;14.05;2.35;;;10.20;99.90;;;;;;5037834;28;20399;-61
2022/05/29 00:14:12;;;;;;;17.95;3.00;;;10.00;99.90;;;;;;5059446;28;20377;-60
2022/05/29 00:16:38;;;;;;;17.70;2.63;;;10.10;99.90;;;;;;5042839;28;20484;-61
2022/05/29 00:19:04;;;;;;;21.50;3.00;;;10.00;99.90;;;;;;5040508;28;20041;-61
2022/05/29 00:21:34;;;;;;;11.70;2.17;;;10.00;99.90;;;;;;5042423;28;20041;-61
2022/05/29 00:24:00;;;;;;;16.50;1.95;;;9.90;99.90;;;;;;5046116;28;20510;-61
2022/05/29 00:26:26;;;;;;;16.45;2.10;;;10.00;99.90;;;;;;5037435;28;20136;-61
2022/05/29 00:28:52;;;;;;;15.90;2.40;;;10.00;99.90;;;;;;5020468;28;20372;-61
2022/05/29 00:31:17;;;;;;;12.82;2.20;;;10.10;99.90;;;;;;5034009;28;20403;-61
2022/05/29 00:33:43;;;;;;;20.35;2.35;;;9.90;99.90;;;;;;5037074;28;20593;-60
2022/05/29 00:36:11;;;;;;;16.95;2.58;;;10.00;99.90;;;;;;5019842;28;20055;-61
2022/05/29 00:38:42;;;;;;;17.40;2.60;;;10.20;99.90;;;;;;5038132;28;20655;-59
2022/05/29 00:41:26;;;;;;;19.60;2.53;;;10.30;99.90;;;;;;5053236;28;20037;-60
2022/05/29 00:44:23;;;;;;;22.00;2.67;;;10.20;99.90;;;;;;5037831;28;20041;-61
2022/05/29 00:47:04;;;;;;;13.98;2.53;;;10.30;99.90;;;;;;5039565;28;20080;-60
2022/05/29 00:49:35;;;;;;;19.40;2.40;;;10.40;99.90;;;;;;5041505;28;20269;-59
2022/05/29 00:52:18;;;;;;;17.88;3.22;;;10.30;99.90;;;;;;5036875;28;20045;-59
2022/05/29 00:55:22;;;;;;;11.63;2.03;;;10.40;99.90;;;;;;5038946;28;20033;-60
2022/05/29 00:57:58;;;;;;;18.05;2.70;;;10.40;99.90;;;;;;4982861;28;20054;-61
2022/05/29 01:00:27;;;;;;;15.68;2.20;;;10.40;99.90;;;;;;4987581;28;20054;-60
2022/05/29 01:02:59;;;;;;;15.05;2.00;;;10.40;99.90;;;;;;5018495;28;20511;-61
2022/05/29 01:05:27;;;;;;;16.20;2.50;;;10.40;99.90;;;;;;5053670;28;20052;-61
2022/05/29 01:08:14;;;;;;;14.75;2.10;;;10.40;99.90;;;;;;5034012;28;20052;-61
2022/05/29 01:10:49;;;;;;;10.52;1.70;;;10.40;99.90;;;;;;5048448;28;20128;-62
2022/05/29 01:13:27;;;;;;;11.10;1.33;;;10.30;99.90;;;;;;5043131;28;20079;-61
2022/05/29 01:16:18;;;;;;;13.93;2.15;;;10.40;99.90;;;;;;5039323;28;20124;-61
2022/05/29 01:19:13;;;;;;;12.65;1.55;;;10.30;99.90;;;;;;5018613;28;20076;-63
2022/05/29 01:21:55;;;;;;;17.38;2.03;;;10.30;99.90;;;;;;5023167;28;20045;-61
2022/05/29 01:24:42;;;;;;;11.77;1.40;;;10.40;99.90;;;;;;5036481;28;20504;-62
2022/05/29 01:27:27;;;;;;;14.82;1.95;;;10.40;99.90;;;;;;5038602;28;20124;-60
2022/05/29 01:30:10;;;;;;;19.65;3.30;;;10.30;99.90;;;;;;5050852;28;20045;-62
2022/05/29 01:33:13;;;;;;;36.63;21.73;;;10.40;99.90;;;;;;5036433;28;20219;-62
2022/05/29 01:36:01;;;;;;;36.03;21.33;;;10.50;99.90;;;;;;5034214;28;20045;-62
2022/05/29 01:38:53;;;;;;;29.00;15.73;;;10.40;99.90;;;;;;5038700;28;20045;-62
2022/05/29 01:41:26;;;;;;;15.45;3.72;;;10.40;99.90;;;;;;5037789;28;20403;-62
2022/05/29 01:44:14;;;;;;;19.48;3.05;;;10.30;99.90;;;;;;5037313;28;20045;-62
2022/05/29 01:46:46;;;;;;;15.65;2.55;;;10.30;99.90;;;;;;5047752;28;20178;-61
2022/05/29 01:49:13;;;;;;;10.88;2.10;;;10.30;99.90;;;;;;5034795;28;20467;-61
2022/05/29 01:51:54;;;;;;;13.05;2.08;;;10.40;99.90;;;;;;5030451;28;20037;-60
2022/05/29 01:54:27;;;;;;;14.65;2.10;;;10.20;99.90;;;;;;5052710;28;20033;-60
2022/05/29 01:56:58;;;;;;;13.98;2.50;;;10.30;99.90;;;;;;5038763;28;20037;-60
2022/05/29 01:59:27;;;;;;;15.43;2.67;;;10.30;99.90;;;;;;5036533;28;20503;-60
2022/05/29 02:01:58;;;;;;;21.25;2.45;;;10.20;99.90;;;;;;5051399;28;20391;-60
2022/05/29 02:04:26;;;;;;;15.45;2.42;;;10.30;99.90;;;;;;5058780;28;20057;-61
2022/05/29 02:09:47;;;;;;;14.85;3.00;;;10.20;99.90;;;;;;5057114;28;20083;-61
2022/05/29 02:12:18;;;;;;;16.48;3.38;;;10.10;99.90;;;;;;5026953;28;20041;-61
2022/05/29 02:15:04;;;;;;;16.88;2.83;;;10.00;99.90;;;;;;5038210;28;20068;-62
2022/05/29 02:17:42;;;;;;;14.85;2.58;;;10.00;99.90;;;;;;5028484;28;20046;-62
2022/05/29 02:20:25;;;;;;;17.55;3.20;;;9.90;99.90;;;;;;5036987;28;20033;-62
2022/05/29 02:22:56;;;;;;;14.82;2.30;;;9.90;99.90;;;;;;5036252;28;20055;-62
2022/05/29 02:25:25;;;;;;;16.77;2.17;;;9.90;99.90;;;;;;5016683;28;20080;-62
2022/05/29 02:28:12;;;;;;;11.57;1.92;;;9.90;99.90;;;;;;5037234;28;20055;-62
2022/05/29 02:30:42;;;;;;;13.38;1.85;;;9.80;99.90;;;;;;5034169;28;20045;-62
2022/05/29 02:33:22;;;;;;;13.50;1.90;;;9.80;99.90;;;;;;5050256;28;20053;-62
2022/05/29 02:36:24;;;;;;;11.60;1.90;;;9.60;99.90;;;;;;5032783;28;20048;-62
2022/05/29 02:39:28;;;;;;;15.23;2.83;;;9.70;99.90;;;;;;5040077;28;20037;-60
2022/05/29 02:42:09;;;;;;;16.27;2.83;;;9.60;99.90;;;;;;5030622;28;20046;-60
2022/05/29 02:44:40;;;;;;;14.40;3.00;;;9.50;99.90;;;;;;5035926;28;20069;-60
2022/05/29 02:47:06;;;;;;;19.35;2.90;;;9.60;99.90;;;;;;5035590;28;20496;-61
2022/05/29 02:49:36;;;;;;;16.13;2.60;;;9.70;99.90;;;;;;5036965;28;20128;-61
2022/05/29 02:52:08;;;;;;;17.38;3.13;;;9.70;99.90;;;;;;5051383;28;20041;-61
2022/05/29 02:54:34;;;;;;;19.08;3.13;;;9.80;99.90;;;;;;5040222;28;20033;-62
2022/05/29 02:57:02;;;;;;;19.25;3.70;;;9.60;99.90;;;;;;5057184;28;20037;-63
2022/05/29 02:59:36;;;;;;;18.90;3.58;;;9.70;99.90;;;;;;5033830;28;20178;-61
2022/05/29 03:02:23;;;;;;;17.05;2.95;;;9.70;99.90;;;;;;5039758;28;20345;-62
2022/05/29 03:05:07;;;;;;;20.05;2.67;;;9.80;99.90;;;;;;5041160;28;20087;-62
2022/05/29 03:07:39;;;;;;;19.92;2.53;;;9.80;99.90;;;;;;5038289;28;20140;-61
2022/05/29 03:10:23;;;;;;;12.57;2.30;;;9.80;99.90;;;;;;5055890;28;20076;-62
2022/05/29 03:12:59;;;;;;;17.83;2.45;;;10.00;99.90;;;;;;5039545;28;20049;-60
2022/05/29 03:15:35;;;;;;;14.40;2.10;;;9.90;99.90;;;;;;5031385;28;20037;-61
2022/05/29 03:18:10;;;;;;;13.13;2.00;;;10.00;99.90;;;;;;5038838;28;20284;-61
2022/05/29 03:21:01;;;;;;;17.67;2.50;;;10.00;99.90;;;;;;5027950;28;20590;-61
2022/05/29 03:23:45;;;;;;;14.07;1.52;;;10.10;99.90;;;;;;5034122;28;20041;-61
2022/05/29 03:26:33;;;;;;;7.93;1.05;;;10.10;99.90;;;;;;5056197;28;20053;-61
2022/05/29 03:29:15;;;;;;;11.20;1.25;;;10.00;99.90;;;;;;5035301;28;20041;-61
2022/05/29 03:31:41;;;;;;;12.38;1.30;;;10.10;99.90;;;;;;5050170;28;20045;-60
2022/05/29 03:34:09;;;;;;;13.68;1.58;;;10.10;99.90;;;;;;5056258;28;20553;-61
2022/05/29 03:36:35;;;;;;;13.05;1.15;;;10.10;99.90;;;;;;5037545;28;20492;-61
2022/05/29 03:39:01;;;;;;;16.50;2.00;;;9.90;99.90;;;;;;5042572;28;20037;-61
2022/05/29 03:41:44;;;;;;;17.88;2.60;;;9.90;99.90;;;;;;5047168;28;20131;-61
2022/05/29 03:44:11;;;;;;;15.73;2.05;;;9.80;99.90;;;;;;5057922;28;20396;-61
2022/05/29 03:46:39;;;;;;;17.70;2.80;;;9.60;99.90;;;;;;5040808;28;20037;-60
2022/05/29 03:49:09;;;;;;;16.05;3.05;;;9.50;99.90;;;;;;5063573;28;20128;-60
2022/05/29 03:51:35;;;;;;;21.58;3.25;;;9.60;99.90;;;;;;5042313;28;20513;-60
2022/05/29 03:54:02;;;;;;;22.02;3.17;;;9.40;99.90;;;;;;5041716;28;20502;-61
2022/05/29 03:56:29;;;;;;;22.52;3.03;;;9.30;99.90;;;;;;5044652;28;20057;-60
2022/05/29 03:58:55;;;;;;;19.90;2.95;;;9.60;99.90;;;;;;5041945;28;20403;-60
2022/05/29 04:01:21;;;;;;;20.80;2.58;;;9.60;99.90;;;;;;5055258;28;20041;-59
2022/05/29 04:03:47;;;;;;;13.65;1.83;;;9.70;99.90;;;;;;5042352;28;20033;-59
2022/05/29 04:06:13;;;;;;;15.52;1.67;;;9.60;99.90;;;;;;5039874;28;20080;-60
2022/05/29 04:14:07;;;;;;;10.32;1.48;;;9.70;99.90;;;;;;5043488;28;20049;-61
2022/05/29 04:16:33;;;;;;;12.90;1.60;;;9.70;99.90;;;;;;5050795;28;20393;-60
2022/05/29 04:18:59;;;;;;;11.85;1.35;;;9.60;99.90;;;;;;5039794;28;20041;-61
2022/05/29 04:21:25;;;;;;;12.10;1.17;;;9.60;99.90;;;;;;5049530;28;20055;-61
2022/05/29 04:23:51;;;;;;;14.40;1.55;;;9.60;99.90;;;;;;5037931;28;20041;-60
2022/05/29 04:26:18;;;;;;;16.45;2.05;;;9.50;99.90;;;;;;5043706;28;20548;-60
2022/05/29 04:28:44;;;;;;;16.17;2.22;;;9.60;99.90;;;;;;5039994;28;20077;-61
2022/05/29 04:31:10;;;;;;;22.20;2.72;;;9.70;99.90;;;;;;5048401;28;20555;-61
2022/05/29 04:33:36;;;;;;;17.83;2.15;;;9.60;99.90;;;;;;5036503;28;20041;-59
2022/05/29 04:36:02;;;;;;;19.27;2.10;;;9.70;99.90;;;;;;5043568;28;20110;-62
2022/05/29 04:38:28;;;;;;;15.13;1.40;;;9.70;99.90;;;;;;5032547;28;20048;-61
2022/05/29 04:40:55;;;;;;;22.65;3.28;;;9.70;99.90;;;;;;5041152;28;20037;-61
2022/05/29 04:43:21;;;;;;;20.88;2.58;;;9.90;99.90;;;;;;5059167;28;20243;-60
2022/05/29 04:45:51;;;;;;;20.75;2.83;;;9.90;99.90;;;;;;5032953;28;20136;-60
2022/05/29 04:48:16;;;;;;;19.13;2.05;;;9.90;99.90;;;;;;5040288;28;20080;-60
2022/05/29 04:50:43;;;;;;;20.30;1.92;;;10.00;99.90;;;;;;5045046;28;20478;-61
2022/05/29 04:53:09;;;;;;;22.50;2.83;;;10.00;99.90;;;;;;5056916;28;20063;-61
2022/05/29 04:55:37;;;;;;;19.67;2.65;;;10.00;99.90;;;;;;5040275;28;20052;-60
2022/05/29 04:58:03;;;;;;;21.25;2.30;;;10.10;99.90;;;;;;5041631;28;20380;-60
2022/05/29 05:00:28;;;;;;;24.00;3.10;;;10.20;99.90;;;;;;5029976;28;20032;-60
2022/05/29 05:02:54;;;;;;;17.10;2.42;;;10.20;99.90;;;;;;5052692;28;20287;-61
2022/05/29 05:05:20;;;;;;;19.77;2.30;;;10.20;99.90;;;;;;5041248;28;20053;-59
2022/05/29 05:07:46;;;;;;;24.30;3.20;;;10.10;99.90;;;;;;5038287;28;20052;-59
2022/05/29 05:10:15;;;;;;;19.33;2.97;;;10.10;99.90;;;;;;5055162;28;20045;-60
2022/05/29 05:12:41;;;;;;;18.17;2.42;;;10.10;99.90;;;;;;5038718;28;20048;-60
2022/05/29 05:15:09;;;;;;;18.85;1.90;;;10.20;99.90;;;;;;5047781;28;20549;-60
2022/05/29 05:17:35;;;;;;;12.63;1.45;;;10.20;99.90;;;;;;5031326;28;20075;-60
2022/05/29 05:20:02;;;;;;;18.90;2.22;;;10.30;99.90;;;;;;5022244;28;20037;-60
2022/05/29 05:22:28;;;;;;;18.33;1.88;;;10.20;99.90;;;;;;5044962;28;20089;-60
2022/05/29 05:24:54;;;;;;;14.20;1.70;;;10.30;99.90;;;;;;5050530;28;20048;-60
2022/05/29 05:27:19;;;;;;;17.58;2.05;;;10.30;99.90;;;;;;5037560;28;20558;-61
2022/05/29 05:29:45;;;;;;;14.93;1.80;;;10.30;99.90;;;;;;5002540;28;20056;-61
2022/05/29 05:32:11;;;;;;;11.82;2.25;;;10.40;99.90;;;;;;5040503;28;20045;-61
2022/05/29 05:34:37;;;;;;;16.48;2.15;;;10.30;99.90;;;;;;5044300;28;20047;-61
2022/05/29 05:37:03;;;;;;;18.73;2.08;;;10.40;99.90;;;;;;5020695;28;20036;-61
2022/05/29 05:39:29;;;;;;;14.70;2.08;;;10.40;99.90;;;;;;5036813;28;20048;-61
2022/05/29 05:41:55;;;;;;;13.50;1.38;;;10.40;99.90;;;;;;5037518;28;20446;-61
2022/05/29 05:44:21;;;;;;;14.57;1.45;;;10.50;99.90;;;;;;5040882;28;20049;-62
2022/05/29 05:46:49;;;;;;;14.38;1.65;;;10.40;99.90;;;;;;5051657;28;20051;-61
2022/05/29 05:49:17;;;;;;;8.52;0.85;;;10.40;99.90;;;;;;5039801;28;20049;-60
2022/05/29 05:51:43;;;;;;;11.05;0.90;;;10.40;99.90;;;;;;5049081;28;20141;-62
2022/05/29 05:54:10;;;;;;;13.63;1.40;;;10.40;99.90;;;;;;5028098;28;20045;-61
2022/05/29 05:56:39;;;;;;;9.43;0.80;;;10.40;99.90;;;;;;5019989;28;20095;-61
2022/05/29 05:59:05;;;;;;;11.55;1.38;;;10.40;99.90;;;;;;5057503;28;20044;-62
2022/05/29 06:01:31;;;;;;;12.90;1.67;;;10.20;99.90;;;;;;5053227;28;20068;-61
2022/05/29 06:03:57;;;;;;;11.02;1.40;;;10.20;99.90;;;;;;5029616;28;20139;-62
2022/05/29 06:06:22;;;;;;;11.68;0.75;;;10.30;99.90;;;;;;5015468;28;20114;-61
2022/05/29 06:08:48;;;;;;;11.18;1.30;;;10.20;99.90;;;;;;5038797;28;20072;-60
2022/05/29 06:11:14;;;;;;;11.30;1.33;;;10.20;99.90;;;;;;5032455;28;20111;-61
2022/05/29 06:13:40;;;;;;;14.55;1.40;;;10.20;99.90;;;;;;5053420;28;20045;-60
2022/05/29 06:16:06;;;;;;;14.45;1.45;;;10.10;99.90;;;;;;5035809;28;20316;-60
2022/05/29 06:18:31;;;;;;;16.15;1.52;;;10.10;99.90;;;;;;5032887;28;20041;-61
2022/05/29 06:21:00;;;;;;;13.35;1.55;;;10.00;99.90;;;;;;5036797;28;20094;-62
2022/05/29 06:23:27;;;;;;;14.48;1.70;;;10.00;99.90;;;;;;5039587;28;20040;-63
2022/05/29 06:25:53;;;;;;;9.80;1.20;;;10.10;99.90;;;;;;5037342;28;20124;-62
2022/05/29 06:28:19;;;;;;;19.98;1.95;;;10.10;99.90;;;;;;5016402;28;20159;-62
2022/05/29 06:30:44;;;;;;;14.52;1.42;;;10.10;99.90;;;;;;5026425;28;20049;-62
2022/05/29 06:33:11;;;;;;;13.45;1.50;;;10.10;99.90;;;;;;5016953;28;20053;-62
2022/05/29 06:35:37;;;;;;;13.68;1.67;;;10.10;99.90;;;;;;5020620;28;20347;-62
2022/05/29 06:38:03;;;;;;;12.95;1.52;;;10.20;99.90;;;;;;5033475;28;20037;-62
2022/05/29 06:40:29;;;;;;;10.48;1.40;;;10.30;99.90;;;;;;5034692;28;20045;-62
2022/05/29 06:42:55;;;;;;;16.52;1.52;;;10.50;99.90;;;;;;5039138;28;20033;-61
2022/05/29 06:45:21;;;;;;;13.07;1.10;;;10.40;99.90;;;;;;5041178;28;20048;-61
2022/05/29 06:47:46;;;;;;;12.32;1.23;;;10.50;99.90;;;;;;5054810;28;20040;-61
2022/05/29 06:50:12;;;;;;;8.93;1.02;;;10.60;99.90;;;;;;5015368;28;20037;-62
2022/05/29 06:52:38;;;;;;;12.88;1.20;;;10.60;99.90;;;;;;5036539;28;20292;-62
2022/05/29 06:55:05;;;;;;;10.50;1.15;;;10.50;99.90;;;;;;5030157;28;20124;-61
2022/05/29 06:57:37;;;;;;;14.07;1.45;;;10.60;99.90;;;;;;5044659;28;20095;-61
2022/05/29 07:08:42;;;;;;;14.75;1.70;;;10.30;99.90;;;;;;5035212;28;20045;-61
2022/05/29 07:11:15;;;;;;;7.25;0.80;;;10.30;99.90;;;;;;5053379;28;20045;-61
2022/05/29 07:13:41;;;;;;;12.07;1.27;;;10.30;99.90;;;;;;5034869;28;20494;-61
2022/05/29 07:16:07;;;;;;;13.77;1.40;;;10.30;99.90;;;;;;5030319;28;20047;-61
2022/05/29 07:18:40;;;;;;;11.52;1.13;;;10.10;99.90;;;;;;5015876;28;20045;-61
2022/05/29 07:21:12;;;;;;;9.55;1.00;;;10.00;99.90;;;;;;5037220;28;20045;-62
2022/05/29 07:23:38;;;;;;;10.07;1.20;;;10.00;99.90;;;;;;5010991;28;20048;-59
2022/05/29 07:26:04;;;;;;;10.70;0.98;;;9.90;99.90;;;;;;5031455;28;20492;-59
2022/05/29 07:28:30;;;;;;;13.02;1.23;;;10.00;99.90;;;;;;5026596;28;20041;-60
2022/05/29 07:30:56;;;;;;;11.20;1.38;;;10.20;99.90;;;;;;5032233;28;20411;-60
2022/05/29 07:33:23;;;;;;;10.82;1.10;;;10.20;99.90;;;;;;5040508;28;20401;-61
2022/05/29 07:35:49;;;;;;;10.00;0.80;;;10.40;99.90;;;;;;5035155;28;20041;-61
2022/05/29 07:38:15;;;;;;;10.10;0.85;;;10.40;99.90;;;;;;5041114;28;20075;-61
2022/05/29 07:40:40;;;;;;;9.68;1.10;;;10.60;99.90;;;;;;5038120;28;20042;-60
2022/05/29 07:43:22;;;;;;;7.95;0.60;;;10.70;99.90;;;;;;5036802;28;20082;-60
2022/05/29 07:45:58;;;;;;;8.10;0.70;;;10.80;99.90;;;;;;5036278;28;20088;-60
2022/05/29 07:48:27;;;;;;;6.00;0.40;;;11.00;99.90;;;;;;5035522;28;20157;-61
2022/05/29 07:50:53;;;;;;;8.25;0.82;;;11.10;99.90;;;;;;5033257;28;20522;-60
2022/05/29 07:53:19;;;;;;;12.23;1.08;;;11.20;99.90;;;;;;5050965;28;20037;-59
2022/05/29 07:55:46;;;;;;;8.23;1.00;;;11.20;99.90;;;;;;5039655;28;20037;-59
2022/05/29 07:58:13;;;;;;;7.35;0.68;;;11.20;99.90;;;;;;5037606;28;20073;-60
2022/05/29 08:00:40;;;;;;;11.65;1.60;;;11.20;99.90;;;;;;5035892;28;20115;-61
2022/05/29 08:03:06;;;;;;;14.52;1.50;;;11.00;99.90;;;;;;5035762;28;20475;-61
2022/05/29 08:05:35;;;;;;;9.40;0.70;;;10.90;99.90;;;;;;5040931;28;20090;-60
2022/05/29 08:08:04;;;;;;;13.88;0.75;;;10.80;99.90;;;;;;5024302;28;20064;-60
2022/05/29 08:10:35;;;;;;;10.52;1.10;;;10.80;99.90;;;;;;5053873;28;20037;-59
2022/05/29 08:13:01;;;;;;;12.57;1.20;;;10.70;99.90;;;;;;5028772;28;20098;-60
2022/05/29 08:15:27;;;;;;;9.70;0.80;;;10.60;99.90;;;;;;5050243;28;20046;-60
2022/05/29 08:17:53;;;;;;;9.15;1.20;;;10.80;99.90;;;;;;5049757;28;20083;-60
2022/05/29 08:20:19;;;;;;;9.90;1.05;;;10.90;99.90;;;;;;5039045;28;20069;-60
2022/05/29 08:22:45;;;;;;;11.70;1.05;;;11.10;99.90;;;;;;5031213;28;20028;-60
2022/05/29 08:30:41;;;;;;;6.65;0.80;;;11.10;99.90;;;;;;5042333;28;20132;-59
2022/05/29 08:33:23;;;;;;;9.75;0.70;;;11.10;99.90;;;;;;5040463;28;20063;-60
2022/05/29 08:36:10;;;;;;;11.85;1.20;;;11.10;99.90;;;;;;5037407;28;20076;-59
2022/05/29 08:38:40;;;;;;;9.35;0.88;;;11.10;99.90;;;;;;5058259;28;20041;-59
2022/05/29 08:41:10;;;;;;;8.48;0.80;;;11.10;99.90;;;;;;5038336;28;20369;-59
2022/05/29 08:43:56;;;;;;;7.93;0.95;;;10.90;99.90;;;;;;5032753;28;20372;-60
2022/05/29 08:46:28;;;;;;;6.70;0.70;;;10.80;99.90;;;;;;5039014;28;20052;-59
2022/05/29 08:48:55;;;;;;;9.73;1.00;;;11.00;99.90;;;;;;5029638;28;20045;-60
2022/05/29 08:51:30;;;;;;;8.73;0.75;;;11.00;99.90;;;;;;5042925;28;20053;-58
2022/05/29 08:54:20;;;;;;;7.15;0.50;;;11.20;99.90;;;;;;5031363;28;20036;-59
2022/05/29 08:57:14;;;;;;;8.30;0.73;;;11.30;99.90;;;;;;5046309;28;20502;-60
2022/05/29 09:00:01;;;;;;;5.95;0.40;;;11.40;99.90;;;;;;5033734;28;20450;-60
2022/05/29 09:02:50;;;;;;;10.05;0.85;;;11.10;99.90;;;;;;5037189;28;20518;-61
2022/05/29 09:05:34;;;;;;;11.18;0.90;;;11.00;99.90;;;;;;5037957;28;20053;-61
2022/05/29 09:08:12;;;;;;;8.88;1.08;;;10.70;99.90;;;;;;5037437;28;20373;-61
2022/05/29 09:10:44;;;;;;;10.45;0.80;;;10.90;99.90;;;;;;5041128;28;20037;-61
2022/05/29 09:13:17;;;;;;;9.00;0.80;;;11.00;99.90;;;;;;5036529;28;20045;-62
2022/05/29 09:15:56;;;;;;;6.88;0.90;;;11.20;99.90;;;;;;5039477;28;20045;-60
2022/05/29 09:18:32;;;;;;;11.05;1.02;;;11.50;99.90;;;;;;5049522;28;20041;-60
2022/05/29 09:21:03;;;;;;;12.10;1.85;;;11.70;99.90;;;;;;5029626;28;20041;-60
2022/05/29 09:23:38;;;;;;;9.65;0.88;;;12.10;99.90;;;;;;5029244;28;20052;-59
2022/05/29 09:26:06;;;;;;;8.45;0.80;;;12.60;99.90;;;;;;5035162;28;20045;-59
2022/05/29 09:28:36;;;;;;;9.00;0.70;;;12.60;99.90;;;;;;5044816;28;20097;-60
2022/05/29 09:31:08;;;;;;;8.85;1.55;;;12.20;99.90;;;;;;5040092;28;20048;-60
2022/05/29 09:33:36;;;;;;;7.05;0.50;;;12.20;99.90;;;;;;5039317;28;20504;-59
2022/05/29 09:36:13;;;;;;;8.52;0.68;;;12.20;99.90;;;;;;5017901;28;20060;-59
2022/05/29 09:38:57;;;;;;;8.45;0.60;;;12.30;99.90;;;;;;5034348;28;20182;-59
2022/05/29 09:41:35;;;;;;;7.88;0.50;;;12.40;99.90;;;;;;5035114;28;20096;-61
2022/05/29 09:44:17;;;;;;;7.82;0.52;;;12.60;99.90;;;;;;5039509;28;20029;-62
2022/05/29 09:46:48;;;;;;;9.52;0.70;;;12.30;99.90;;;;;;5036807;28;20045;-59
2022/05/29 09:49:41;;;;;;;6.93;0.70;;;12.10;99.90;;;;;;5043796;28;20422;-59
2022/05/29 09:52:27;;;;;;;7.97;0.57;;;11.90;99.90;;;;;;5046229;28;20506;-60
2022/05/29 09:54:57;;;;;;;4.65;0.40;;;12.00;99.90;;;;;;5039429;28;20037;-60
2022/05/29 09:57:31;;;;;;;6.25;0.52;;;12.20;99.90;;;;;;5039503;28;20033;-60
2022/05/29 10:00:06;;;;;;;10.55;0.77;;;11.90;99.90;;;;;;5041544;28;20124;-60
2022/05/29 10:02:39;;;;;;;8.45;0.77;;;11.80;99.90;;;;;;5040157;28;20075;-60
2022/05/29 10:05:09;;;;;;;6.15;0.47;;;11.80;99.90;;;;;;5039596;28;20379;-60
2022/05/29 10:07:40;;;;;;;8.52;0.80;;;11.80;99.90;;;;;;5034418;28;20084;-58
2022/05/29 10:10:24;;;;;;;8.40;0.60;;;11.90;99.90;;;;;;5034001;28;20050;-58
2022/05/29 10:12:51;;;;;;;6.47;0.88;;;12.30;99.90;;;;;;5040165;28;20048;-59
2022/05/29 10:15:26;;;;;;;6.57;0.60;;;12.50;99.90;;;;;;5044364;28;20052;-59
2022/05/29 10:17:53;;;;;;;11.23;0.90;;;12.60;99.90;;;;;;5037145;28;20041;-59
2022/05/29 10:20:25;;;;;;;13.48;1.05;;;12.30;99.90;;;;;;5038615;28;20045;-59
2022/05/29 10:22:52;;;;;;;13.52;1.10;;;12.30;99.90;;;;;;5038581;28;20540;-59
2022/05/29 10:25:31;;;;;;;9.73;0.70;;;12.10;99.90;;;;;;5039084;28;20079;-60
2022/05/29 10:28:09;;;;;;;7.40;0.60;;;12.00;99.90;;;;;;5032699;28;20096;-60
2022/05/29 10:31:13;;;;;;;7.43;0.50;;;12.00;99.90;;;;;;5015930;28;20041;-59
2022/05/29 10:33:58;;;;;;;6.82;0.60;;;12.10;99.90;;;;;;5028143;28;20051;-59
2022/05/29 10:36:27;;;;;;;7.63;0.52;;;12.20;99.90;;;;;;5036482;28;20088;-59
2022/05/29 10:39:06;;;;;;;10.13;0.80;;;12.20;99.90;;;;;;5035614;28;20037;-60
2022/05/29 10:41:36;;;;;;;6.32;0.65;;;12.30;99.90;;;;;;5040735;28;20087;-59
2022/05/29 10:44:02;;;;;;;7.28;0.90;;;12.60;99.90;;;;;;5034667;28;20111;-59
2022/05/29 10:46:53;;;;;;;9.20;0.75;;;12.70;99.90;;;;;;5031188;28;20057;-59
2022/05/29 10:49:42;;;;;;;11.20;0.70;;;12.80;99.90;;;;;;5038075;28;20073;-59
2022/05/29 10:52:32;;;;;;;9.48;0.73;;;12.80;99.90;;;;;;5038534;28;20143;-60
2022/05/29 10:55:16;;;;;;;7.40;0.80;;;12.70;99.90;;;;;;5041869;28;20059;-59
2022/05/29 10:58:06;;;;;;;9.82;0.95;;;13.00;99.90;;;;;;5033661;28;20103;-60
2022/05/29 11:04:11;;;;;;;8.90;0.70;;;13.20;99.90;;;;;;4981440;28;20046;-60
2022/05/29 11:06:53;;;;;;;8.60;0.80;;;12.80;99.90;;;;;;5039605;28;20054;-60
2022/05/29 11:09:34;;;;;;;8.73;0.70;;;13.00;99.90;;;;;;5033286;28;20053;-60
2022/05/29 11:12:18;;;;;;;11.05;1.30;;;12.80;99.90;;;;;;5040227;28;20056;-60
2022/05/29 11:15:04;;;;;;;11.02;1.05;;;13.00;99.90;;;;;;5035421;28;20047;-59
2022/05/29 11:17:32;;;;;;;9.23;0.60;;;12.80;99.90;;;;;;5035845;28;20041;-60
2022/05/29 11:20:10;;;;;;;6.30;0.85;;;13.20;99.90;;;;;;5036624;28;20041;-61
2022/05/29 11:22:53;;;;;;;5.63;0.50;;;13.40;99.90;;;;;;5033343;28;20073;-60
2022/05/29 11:25:28;;;;;;;;;;;13.30;99.90;;;;;;5030748;28;20045;-61
2022/05/29 11:28:23;;;;;;;3.70;0.40;;;13.60;99.90;;;;;;5036290;28;20298;-61
2022/05/29 11:31:13;;;;;;;5.60;0.70;;;13.40;99.90;;;;;;5036363;28;20041;-61
2022/05/29 11:33:51;;;;;;;6.18;0.80;;;13.60;99.90;;;;;;5051285;28;20033;-61
2022/05/29 11:36:16;;;;;;;7.50;0.50;;;14.10;99.90;;;;;;5051323;28;20358;-60
2022/05/29 11:38:56;;;;;;;9.40;0.55;;;14.10;99.90;;;;;;5034241;28;20116;-62
2022/05/29 11:41:37;;;;;;;7.35;1.00;;;14.40;99.90;;;;;;5054880;28;20060;-59
2022/05/29 11:44:15;;;;;;;10.82;0.80;;;14.20;99.90;;;;;;5036920;28;20056;-59
2022/05/29 11:52:48;;;;;;;11.43;0.95;;;13.40;99.90;;;;;;5034048;28;20419;-61
2022/05/29 11:55:21;;;;;;;11.10;0.80;;;13.20;99.90;;;;;;5044066;28;20037;-60
2022/05/29 11:57:55;;;;;;;10.88;0.85;;;13.20;99.90;;;;;;5033699;28;20041;-60
2022/05/29 12:00:58;;;;;;;8.02;0.70;;;12.80;99.90;;;;;;5039467;28;20049;-59
2022/05/29 12:03:33;;;;;;;6.22;0.65;;;13.10;99.90;;;;;;5054941;28;20048;-60
2022/05/29 12:06:28;;;;;;;8.40;0.68;;;13.10;99.90;;;;;;5035660;28;20132;-60
2022/05/29 12:08:57;;;;;;;14.20;1.00;;;13.00;99.90;;;;;;5045470;28;20084;-59
2022/05/29 12:11:58;;;;;;;8.93;0.90;;;13.20;99.90;;;;;;5036428;28;20052;-58
2022/05/29 12:14:44;;;;;;;10.48;0.90;;;13.80;99.90;;;;;;5043526;28;20104;-59
2022/05/29 12:17:29;;;;;;;10.38;0.95;;;13.70;99.90;;;;;;5040253;28;20040;-59
2022/05/29 12:20:00;;;;;;;12.00;0.95;;;13.80;99.90;;;;;;5043287;28;20037;-59
2022/05/29 12:22:31;;;;;;;12.48;1.08;;;14.20;99.90;;;;;;5052702;28;20407;-61
2022/05/29 12:24:57;;;;;;;8.98;0.80;;;14.60;99.90;;;;;;5051050;28;20491;-60
2022/05/29 12:27:27;;;;;;;9.13;1.00;;;14.70;99.90;;;;;;5050408;28;20039;-60
2022/05/29 12:30:11;;;;;;;10.35;0.63;;;14.80;99.90;;;;;;5039481;28;20039;-61
2022/05/29 12:32:37;;;;;;;7.50;0.70;;;14.90;99.90;;;;;;5041024;28;20040;-60
2022/05/29 12:35:13;;;;;;;7.05;0.90;;;14.30;99.90;;;;;;5036694;28;20041;-61
2022/05/29 12:37:58;;;;;;;8.45;0.75;;;14.50;99.90;;;;;;5033895;28;20095;-60
2022/05/29 12:40:30;;;;;;;8.48;0.73;;;14.30;99.90;;;;;;5040165;28;20456;-60
2022/05/29 12:43:01;;;;;;;8.60;0.80;;;13.70;99.90;;;;;;5037280;28;20075;-61
2022/05/29 12:45:47;;;;;;;9.52;0.98;;;13.20;99.90;;;;;;5028687;28;20045;-59
2022/05/29 12:48:30;;;;;;;11.00;0.93;;;13.00;99.90;;;;;;5036999;28;20083;-61
2022/05/29 12:51:41;;;;;;;10.38;0.77;;;12.50;99.90;;;;;;5030521;28;20082;-61
2022/05/29 12:54:30;;;;;;;6.85;0.50;;;12.70;99.90;;;;;;5032025;28;20050;-61
2022/05/29 12:57:29;;;;;;;8.02;0.60;;;12.40;99.90;;;;;;5043531;28;20106;-61
2022/05/29 13:00:19;;;;;;;7.10;0.80;;;12.50;99.90;;;;;;5041094;28;20414;-61
2022/05/29 13:03:27;;;;;;;8.10;0.70;;;12.70;99.90;;;;;;5037711;28;20494;-61
2022/05/29 13:06:04;;;;;;;11.52;1.10;;;13.10;99.90;;;;;;5015430;28;20138;-60
2022/05/29 13:09:00;;;;;;;10.50;1.00;;;13.40;99.90;;;;;;5038959;28;20045;-61
2022/05/29 13:11:31;;;;;;;9.63;1.02;;;13.30;99.90;;;;;;5034313;28;20554;-60
2022/05/29 13:14:04;;;;;;;10.32;1.08;;;13.30;99.90;;;;;;5035352;28;20044;-61
2022/05/29 13:16:36;;;;;;;7.85;0.73;;;13.60;99.90;;;;;;5036049;28;20056;-60
2022/05/29 13:19:15;;;;;;;7.10;0.63;;;13.30;99.90;;;;;;5026404;28;20395;-61
2022/05/29 13:22:08;;;;;;;9.82;0.90;;;13.40;99.90;;;;;;5043543;28;20052;-60
2022/05/29 13:24:36;;;;;;;8.45;0.50;;;13.80;99.90;;;;;;5037479;28;20048;-60
2022/05/29 13:27:14;;;;;;;9.52;0.70;;;13.60;99.90;;;;;;5033385;28;20112;-61
2022/05/29 13:29:46;;;;;;;11.45;0.80;;;13.40;99.90;;;;;;5041948;28;20064;-60
2022/05/29 13:32:15;;;;;;;7.60;0.82;;;14.00;99.90;;;;;;5029512;28;20069;-60
2022/05/29 13:34:52;;;;;;;12.00;0.80;;;14.40;99.90;;;;;;5043720;28;20363;-60
2022/05/29 13:37:43;;;;;;;11.13;0.77;;;14.60;99.90;;;;;;5030727;28;20102;-59
2022/05/29 13:40:30;;;;;;;11.48;1.00;;;14.10;99.90;;;;;;5050378;28;20047;-59
2022/05/29 13:43:16;;;;;;;10.23;0.98;;;13.70;99.90;;;;;;5040417;28;20077;-59
2022/05/29 13:45:42;;;;;;;7.65;0.60;;;13.30;99.90;;;;;;5042154;28;20072;-59
2022/05/29 13:48:29;;;;;;;9.43;0.88;;;13.30;99.90;;;;;;5038077;28;20537;-58
2022/05/29 13:51:12;;;;;;;9.00;0.90;;;13.60;99.90;;;;;;5030376;28;20049;-59